Terminal Aerodrome Forecast
Issued by NWS

Home | Current Version | Previous Version | Text Only | Print | Product List | Glossary On
Versions: 1 2 3 4 5 6 7 8 9 10 11 12 13
000
FTUS46 KSGX 301100
TAFSNA
TAF
KSNA 301126Z 3012/3112 VRB03KT P6SM OVC007
     FM301600 VRB05KT P6SM SCT011
     FM301900 22009KT P6SM SKC
     FM310200 VRB05KT P6SM FEW014
     FM310600 VRB03KT P6SM OVC012=

USA.gov is the U.S. government's official web portal to all federal, state and local government web resources and services.